createdAt,value
2022-07-27T00:02:16.130Z,21.80
2022-07-27T00:04:43.485Z,21.80
2022-07-27T00:07:10.792Z,21.70
2022-07-27T00:09:38.122Z,21.70
2022-07-27T00:12:05.891Z,21.60
2022-07-27T00:14:33.340Z,21.60
2022-07-27T00:17:00.807Z,21.60
2022-07-27T00:19:28.140Z,21.50
2022-07-27T00:21:55.507Z,21.50
2022-07-27T00:24:22.731Z,21.50
2022-07-27T00:26:50.139Z,21.50
2022-07-27T00:29:17.669Z,21.50
2022-07-27T00:31:45.197Z,21.60
2022-07-27T00:34:12.554Z,21.50
2022-07-27T00:36:39.821Z,21.60
2022-07-27T00:39:07.130Z,21.50
2022-07-27T00:41:34.526Z,21.50
2022-07-27T00:44:02.047Z,21.40
2022-07-27T00:46:29.733Z,21.40
2022-07-27T00:48:57.159Z,21.40
2022-07-27T00:51:25.877Z,21.30
2022-07-27T00:53:57.228Z,21.30
2022-07-27T00:56:25.089Z,21.20
2022-07-27T00:58:53.886Z,21.20
2022-07-27T01:01:21.438Z,21.20
2022-07-27T01:03:48.980Z,21.10
2022-07-27T01:06:23.298Z,21.10
2022-07-27T01:09:18.490Z,21.10
2022-07-27T01:11:47.640Z,21.10
2022-07-27T01:14:16.696Z,21.10
2022-07-27T01:16:44.713Z,21.10
2022-07-27T01:19:14.356Z,21.10
2022-07-27T01:21:41.892Z,21.10
2022-07-27T01:24:09.710Z,21.10
2022-07-27T01:26:39.054Z,21.10
2022-07-27T01:29:06.666Z,21.10
2022-07-27T01:31:34.052Z,21.10
2022-07-27T01:34:01.612Z,21.10
2022-07-27T01:36:29.001Z,21.10
2022-07-27T01:38:56.932Z,21.10
2022-07-27T01:41:24.647Z,21.10
2022-07-27T01:43:51.967Z,21.00
2022-07-27T01:46:19.310Z,21.10
2022-07-27T01:48:46.963Z,21.10
2022-07-27T01:51:14.538Z,21.00
2022-07-27T01:53:41.972Z,21.00
2022-07-27T01:56:13.313Z,21.00
2022-07-27T01:58:43.108Z,21.00
2022-07-27T02:01:11.048Z,21.10
2022-07-27T02:03:38.323Z,21.00
2022-07-27T02:06:06.427Z,21.00
2022-07-27T02:08:35.308Z,20.90
2022-07-27T02:11:21.772Z,20.90
2022-07-27T02:13:49.964Z,20.90
2022-07-27T02:16:18.768Z,20.80
2022-07-27T02:18:48.668Z,20.80
2022-07-27T02:21:16.507Z,20.80
2022-07-27T02:23:45.366Z,20.80
2022-07-27T02:26:12.781Z,20.80
2022-07-27T02:28:40.075Z,20.70
2022-07-27T02:31:07.474Z,20.70
2022-07-27T02:33:34.928Z,20.60
2022-07-27T02:36:02.595Z,20.60
2022-07-27T02:38:29.807Z,20.60
2022-07-27T02:40:57.125Z,20.60
2022-07-27T02:43:24.408Z,20.50
2022-07-27T02:45:52.617Z,20.50
2022-07-27T02:48:20.227Z,20.50
2022-07-27T02:50:48.537Z,20.50
2022-07-27T02:53:15.955Z,20.40
2022-07-27T02:55:43.517Z,20.40
2022-07-27T02:58:10.939Z,20.40
2022-07-27T03:00:38.465Z,20.40
2022-07-27T03:03:05.873Z,20.40
2022-07-27T03:05:33.807Z,20.30
2022-07-27T03:08:01.717Z,20.30
2022-07-27T03:10:29.059Z,20.30
2022-07-27T03:12:56.518Z,20.30
2022-07-27T03:15:24.579Z,20.30
2022-07-27T03:17:54.338Z,20.30
2022-07-27T03:20:21.834Z,20.20
2022-07-27T03:22:49.222Z,20.20
2022-07-27T03:25:16.568Z,20.20
2022-07-27T03:27:43.884Z,20.30
2022-07-27T03:30:11.672Z,20.30
2022-07-27T03:32:38.952Z,20.30
2022-07-27T03:35:06.817Z,20.30
2022-07-27T03:37:34.889Z,20.30
2022-07-27T03:40:02.147Z,20.20
2022-07-27T03:42:29.348Z,20.20
2022-07-27T03:44:56.850Z,20.20
2022-07-27T03:47:25.263Z,20.20
2022-07-27T03:49:53.179Z,20.20
2022-07-27T03:52:21.052Z,20.20
2022-07-27T03:54:48.588Z,20.20
2022-07-27T03:57:15.998Z,20.20
2022-07-27T03:59:43.266Z,20.20
2022-07-27T04:02:10.840Z,20.20
2022-07-27T04:04:38.129Z,20.20
2022-07-27T04:07:05.481Z,20.20
2022-07-27T04:09:33.006Z,20.20
2022-07-27T04:12:00.595Z,20.30
2022-07-27T04:14:28.258Z,20.30
2022-07-27T04:16:55.856Z,20.30
2022-07-27T04:19:23.391Z,20.40
2022-07-27T04:21:50.602Z,20.40
2022-07-27T04:24:17.822Z,20.40
2022-07-27T04:26:45.031Z,20.40
2022-07-27T04:29:15.749Z,20.40
2022-07-27T04:31:47.081Z,20.50
2022-07-27T04:34:14.457Z,20.50
2022-07-27T04:36:41.824Z,20.50
2022-07-27T04:39:09.436Z,20.50
2022-07-27T04:41:37.060Z,20.50
2022-07-27T04:44:04.477Z,20.50
2022-07-27T04:46:31.830Z,20.60
2022-07-27T04:48:59.289Z,20.50
2022-07-27T04:51:29.009Z,20.60
2022-07-27T04:54:00.038Z,20.70
2022-07-27T04:56:27.651Z,20.70
2022-07-27T04:58:55.685Z,20.80
2022-07-27T05:01:23.614Z,20.80
2022-07-27T05:03:51.334Z,20.90
2022-07-27T05:06:19.388Z,21.00
2022-07-27T05:08:46.729Z,21.10
2022-07-27T05:11:13.994Z,21.10
2022-07-27T05:13:41.752Z,21.20
2022-07-27T05:16:12.326Z,21.40
2022-07-27T05:18:40.606Z,21.50
2022-07-27T05:21:08.684Z,21.60
2022-07-27T05:23:37.018Z,21.70
2022-07-27T05:26:04.526Z,21.90
2022-07-27T05:28:31.970Z,22.00
2022-07-27T05:30:59.219Z,22.10
2022-07-27T05:33:26.460Z,22.30
2022-07-27T05:35:55.413Z,22.50
2022-07-27T05:38:23.279Z,22.60
2022-07-27T05:40:50.536Z,22.60
2022-07-27T05:43:17.913Z,22.60
2022-07-27T05:45:45.405Z,22.90
2022-07-27T05:48:12.797Z,23.10
2022-07-27T05:50:40.058Z,23.10
2022-07-27T05:53:07.556Z,23.30
2022-07-27T05:55:34.828Z,23.30
2022-07-27T05:58:02.311Z,23.50
2022-07-27T06:00:29.776Z,23.50
2022-07-27T06:02:57.151Z,23.80
2022-07-27T06:05:24.588Z,23.90
2022-07-27T06:08:01.025Z,23.80
2022-07-27T06:10:33.914Z,23.80
2022-07-27T06:13:06.966Z,24.00
2022-07-27T06:15:35.100Z,24.10
2022-07-27T06:18:04.032Z,24.20
2022-07-27T06:20:31.572Z,24.30
2022-07-27T06:23:00.637Z,24.60
2022-07-27T06:25:34.244Z,24.80
2022-07-27T06:28:06.410Z,25.00
2022-07-27T06:30:33.866Z,25.10
2022-07-27T06:33:07.615Z,25.20
2022-07-27T06:35:37.857Z,25.30
2022-07-27T06:38:07.127Z,25.30
2022-07-27T06:40:34.707Z,25.10
2022-07-27T06:43:02.064Z,24.90
2022-07-27T06:45:29.415Z,25.10
2022-07-27T06:47:56.992Z,25.20
2022-07-27T06:50:24.911Z,25.50
2022-07-27T06:52:52.520Z,25.80
2022-07-27T06:55:19.999Z,25.60
2022-07-27T06:57:47.267Z,25.70
2022-07-27T07:00:15.841Z,26.00
2022-07-27T07:02:53.517Z,25.70
2022-07-27T07:05:21.446Z,25.90
2022-07-27T07:07:49.072Z,26.30
2022-07-27T07:10:16.344Z,26.30
2022-07-27T07:12:43.927Z,26.40
2022-07-27T07:15:11.776Z,26.60
2022-07-27T07:17:39.862Z,26.60
2022-07-27T07:20:08.324Z,26.50
2022-07-27T07:22:35.673Z,26.50
2022-07-27T07:25:04.020Z,26.40
2022-07-27T07:27:31.682Z,26.60
2022-07-27T07:29:59.393Z,26.90
2022-07-27T07:32:33.043Z,27.00
2022-07-27T07:35:01.638Z,27.10
2022-07-27T07:37:33.426Z,27.10
2022-07-27T07:40:18.770Z,27.20
2022-07-27T07:42:58.310Z,27.20
2022-07-27T07:45:25.932Z,27.30
2022-07-27T07:47:54.179Z,27.40
2022-07-27T07:50:22.053Z,27.40
2022-07-27T07:52:53.975Z,27.60
2022-07-27T07:55:23.573Z,27.50
2022-07-27T07:57:51.714Z,27.60
2022-07-27T08:00:20.571Z,27.30
2022-07-27T08:02:48.917Z,27.30
2022-07-27T08:05:17.206Z,27.50
2022-07-27T08:07:45.601Z,27.60
2022-07-27T08:10:15.236Z,27.80
2022-07-27T08:12:45.084Z,27.60
2022-07-27T08:15:13.629Z,27.60
2022-07-27T08:17:41.532Z,27.60
2022-07-27T08:20:09.546Z,27.80
2022-07-27T08:22:37.030Z,27.60
2022-07-27T08:25:05.817Z,27.80
2022-07-27T08:27:39.112Z,27.90
2022-07-27T08:30:11.613Z,28.00
2022-07-27T08:32:50.247Z,28.00
2022-07-27T08:35:22.613Z,28.10
2022-07-27T08:37:50.243Z,28.00
2022-07-27T08:43:07.592Z,28.10
2022-07-27T08:45:35.365Z,28.20
2022-07-27T08:48:04.244Z,28.30
2022-07-27T08:50:31.656Z,28.20
2022-07-27T08:53:08.285Z,28.30
2022-07-27T08:55:42.235Z,28.20
2022-07-27T08:58:10.671Z,28.20
2022-07-27T09:00:41.275Z,28.50
2022-07-27T09:03:16.354Z,28.40
2022-07-27T09:05:49.255Z,28.50
2022-07-27T09:08:18.441Z,28.40
2022-07-27T09:10:45.866Z,28.40
2022-07-27T09:13:21.167Z,28.40
2022-07-27T09:16:17.039Z,28.50
2022-07-27T09:18:41.809Z,28.50
2022-07-27T09:21:24.770Z,28.50
2022-07-27T09:23:55.880Z,28.50
2022-07-27T09:26:33.572Z,28.60
2022-07-27T09:29:06.122Z,28.50
2022-07-27T09:31:44.551Z,28.60
2022-07-27T09:34:12.934Z,28.60
2022-07-27T09:36:54.658Z,28.60
2022-07-27T09:39:24.510Z,28.70
2022-07-27T09:41:55.342Z,28.70
2022-07-27T09:44:42.627Z,28.70
2022-07-27T09:47:23.986Z,28.80
2022-07-27T09:49:51.405Z,28.80
2022-07-27T09:52:26.132Z,28.80
2022-07-27T09:54:53.748Z,29.00
2022-07-27T09:57:21.318Z,29.10
2022-07-27T09:59:48.765Z,28.90
2022-07-27T10:02:16.489Z,28.50
2022-07-27T10:04:44.759Z,28.50
2022-07-27T10:07:13.948Z,28.70
2022-07-27T10:09:42.235Z,28.70
2022-07-27T10:12:09.897Z,28.70
2022-07-27T10:14:37.269Z,28.80
2022-07-27T10:17:06.572Z,28.80
2022-07-27T10:19:48.197Z,28.70
2022-07-27T10:22:15.991Z,28.80
2022-07-27T10:24:43.679Z,28.90
2022-07-27T10:27:31.268Z,29.00
2022-07-27T10:29:59.346Z,29.00
2022-07-27T10:32:31.399Z,29.00
2022-07-27T10:35:00.027Z,28.90
2022-07-27T10:37:32.623Z,29.00
2022-07-27T10:40:24.856Z,29.10
2022-07-27T10:43:17.051Z,29.10
2022-07-27T10:45:50.532Z,29.10
2022-07-27T10:48:44.236Z,29.10
2022-07-27T10:51:16.782Z,29.00
2022-07-27T10:56:47.367Z,29.10
2022-07-27T10:59:15.145Z,29.10
2022-07-27T11:01:58.837Z,29.00
2022-07-27T11:04:26.670Z,28.80
2022-07-27T11:10:03.504Z,29.00
2022-07-27T11:12:31.929Z,29.10
2022-07-27T11:15:01.260Z,29.20
2022-07-27T11:20:23.730Z,29.40
2022-07-27T11:25:38.839Z,29.50
2022-07-27T11:28:09.664Z,29.40
2022-07-27T11:30:37.423Z,29.10
2022-07-27T11:33:05.637Z,29.30
2022-07-27T11:35:33.080Z,29.40
2022-07-27T11:38:06.601Z,29.40
2022-07-27T11:40:56.842Z,29.50
2022-07-27T11:43:38.966Z,29.70
2022-07-27T11:46:23.310Z,29.70
2022-07-27T11:49:07.004Z,30.00
2022-07-27T11:51:40.971Z,30.00
2022-07-27T11:54:30.411Z,29.70
2022-07-27T11:57:03.862Z,29.70
2022-07-27T11:59:39.722Z,29.90
2022-07-27T12:02:20.033Z,29.90
2022-07-27T12:04:49.754Z,30.10
2022-07-27T12:07:20.345Z,30.00
2022-07-27T12:09:57.281Z,29.90
2022-07-27T12:12:29.390Z,30.00
2022-07-27T12:15:16.673Z,30.00
2022-07-27T12:17:59.799Z,30.00
2022-07-27T12:20:35.191Z,30.00
2022-07-27T12:23:08.094Z,30.00
2022-07-27T12:25:36.774Z,30.10
2022-07-27T12:28:07.097Z,30.10
2022-07-27T12:30:45.648Z,30.30
2022-07-27T12:33:25.230Z,30.30
2022-07-27T12:35:52.608Z,30.30
2022-07-27T12:38:19.886Z,30.20
2022-07-27T12:40:58.175Z,30.20
2022-07-27T12:43:27.781Z,30.40
2022-07-27T12:45:56.030Z,30.30
2022-07-27T12:48:26.572Z,30.30
2022-07-27T12:51:02.658Z,30.40
2022-07-27T12:53:30.853Z,30.60
2022-07-27T12:56:05.389Z,30.60
2022-07-27T12:58:33.017Z,30.60
2022-07-27T13:01:01.273Z,30.70
2022-07-27T13:03:28.574Z,30.70
2022-07-27T13:05:55.845Z,30.70
2022-07-27T13:08:23.751Z,30.70
2022-07-27T13:10:54.130Z,30.60
2022-07-27T13:13:24.963Z,30.50
2022-07-27T13:15:52.932Z,30.60
2022-07-27T13:18:23.780Z,30.50
2022-07-27T13:20:51.963Z,30.50
2022-07-27T13:23:20.961Z,30.50
2022-07-27T13:25:48.515Z,30.60
2022-07-27T13:28:16.010Z,30.60
2022-07-27T13:30:43.478Z,30.70
2022-07-27T13:33:11.171Z,30.70
2022-07-27T13:35:38.397Z,30.70
2022-07-27T13:38:05.649Z,30.50
2022-07-27T13:40:35.278Z,30.10
2022-07-27T13:43:02.638Z,29.90
2022-07-27T13:45:43.179Z,30.00
2022-07-27T13:48:12.309Z,30.00
2022-07-27T13:50:40.060Z,30.00
2022-07-27T13:53:07.439Z,30.00
2022-07-27T13:55:35.538Z,30.00
2022-07-27T13:58:02.926Z,30.00
2022-07-27T14:00:30.202Z,30.00
2022-07-27T14:02:57.690Z,30.00
2022-07-27T14:05:25.661Z,30.20
2022-07-27T14:07:55.338Z,30.40
2022-07-27T14:10:42.210Z,30.30
2022-07-27T14:13:13.260Z,30.50
2022-07-27T14:15:54.327Z,30.40
2022-07-27T14:18:23.125Z,30.30
2022-07-27T14:20:50.853Z,30.30
2022-07-27T14:23:18.602Z,30.30
2022-07-27T14:25:46.508Z,30.30
2022-07-27T14:28:13.774Z,30.40
2022-07-27T14:30:41.423Z,30.30
2022-07-27T14:33:09.198Z,30.40
2022-07-27T14:35:40.528Z,30.40
2022-07-27T14:38:08.703Z,30.40
2022-07-27T14:40:35.994Z,30.40
2022-07-27T14:43:03.115Z,30.30
2022-07-27T14:45:45.180Z,30.20
2022-07-27T14:48:22.742Z,30.20
2022-07-27T14:50:52.611Z,30.20
2022-07-27T14:53:19.815Z,30.20
2022-07-27T14:55:48.645Z,30.20
2022-07-27T14:58:15.950Z,30.20
2022-07-27T15:00:43.253Z,30.20
2022-07-27T15:03:14.610Z,30.10
2022-07-27T15:05:50.492Z,30.00
2022-07-27T15:08:19.384Z,30.00
2022-07-27T15:10:47.384Z,30.10
2022-07-27T15:13:15.125Z,30.00
2022-07-27T15:15:42.342Z,29.90
2022-07-27T15:18:09.630Z,30.00
2022-07-27T15:20:36.892Z,30.00
2022-07-27T15:23:04.833Z,29.80
2022-07-27T15:25:32.445Z,29.80
2022-07-27T15:27:59.907Z,29.70
2022-07-27T15:30:27.163Z,29.60
2022-07-27T15:32:54.409Z,29.50
2022-07-27T15:35:21.889Z,29.50
2022-07-27T15:37:54.341Z,29.40
2022-07-27T15:40:37.971Z,29.40
2022-07-27T15:43:06.728Z,29.30
2022-07-27T15:45:39.026Z,29.30
2022-07-27T15:48:07.213Z,29.30
2022-07-27T15:50:35.462Z,29.40
2022-07-27T15:53:02.750Z,29.50
2022-07-27T15:55:29.873Z,29.40
2022-07-27T15:57:57.944Z,29.50
2022-07-27T16:00:25.758Z,29.40
2022-07-27T16:02:53.816Z,29.40
2022-07-27T16:05:21.823Z,29.40
2022-07-27T16:07:48.929Z,29.40
2022-07-27T16:10:15.980Z,29.30
2022-07-27T16:12:43.327Z,29.20
2022-07-27T16:15:10.626Z,29.20
2022-07-27T16:17:37.727Z,29.10
2022-07-27T16:20:05.131Z,29.00
2022-07-27T16:22:34.588Z,29.00
2022-07-27T16:25:01.685Z,29.00
2022-07-27T16:27:29.112Z,28.90
2022-07-27T16:29:56.162Z,28.90
2022-07-27T16:32:23.282Z,28.80
2022-07-27T16:34:50.471Z,28.70
2022-07-27T16:37:17.532Z,28.70
2022-07-27T16:39:44.801Z,28.70
2022-07-27T16:42:11.896Z,28.60
2022-07-27T16:44:40.298Z,28.60
2022-07-27T16:47:07.620Z,28.60
2022-07-27T16:49:36.809Z,28.60
2022-07-27T16:52:05.034Z,28.50
2022-07-27T16:54:38.691Z,28.50
2022-07-27T16:57:06.948Z,28.40
2022-07-27T16:59:34.165Z,28.40
2022-07-27T17:02:01.319Z,28.40
2022-07-27T17:04:28.551Z,28.40
2022-07-27T17:06:55.930Z,28.30
2022-07-27T17:09:23.161Z,28.30
2022-07-27T17:11:50.556Z,28.20
2022-07-27T17:14:21.352Z,28.20
2022-07-27T17:16:52.196Z,28.10
2022-07-27T17:19:20.236Z,28.10
2022-07-27T17:21:48.209Z,28.10
2022-07-27T17:24:15.394Z,28.00
2022-07-27T17:26:42.482Z,28.00
2022-07-27T17:29:09.951Z,28.00
2022-07-27T17:31:37.562Z,28.00
2022-07-27T17:34:04.742Z,27.90
2022-07-27T17:36:31.772Z,27.90
2022-07-27T17:38:59.204Z,27.90
2022-07-27T17:41:26.404Z,27.80
2022-07-27T17:43:54.680Z,27.80
2022-07-27T17:46:23.397Z,27.80
2022-07-27T17:48:51.093Z,27.80
2022-07-27T17:51:18.575Z,27.80
2022-07-27T17:53:45.672Z,27.80
2022-07-27T17:56:13.484Z,27.80
2022-07-27T17:58:43.181Z,27.90
2022-07-27T18:01:10.558Z,27.90
2022-07-27T18:03:37.783Z,27.90
2022-07-27T18:06:04.922Z,27.80
2022-07-27T18:08:32.416Z,27.80
2022-07-27T18:10:59.710Z,27.70
2022-07-27T18:13:39.313Z,27.60
2022-07-27T18:16:09.556Z,27.50
2022-07-27T18:18:37.455Z,27.50
2022-07-27T18:21:05.469Z,27.40
2022-07-27T18:23:33.462Z,27.30
2022-07-27T18:26:01.033Z,27.30
2022-07-27T18:28:28.251Z,27.20
2022-07-27T18:30:55.531Z,27.20
2022-07-27T18:33:22.893Z,27.10
2022-07-27T18:35:50.698Z,27.10
2022-07-27T18:38:18.432Z,27.10
2022-07-27T18:40:46.950Z,27.00
2022-07-27T18:43:15.006Z,27.00
2022-07-27T18:45:42.229Z,27.00
2022-07-27T18:48:10.368Z,27.00
2022-07-27T18:50:39.675Z,27.00
2022-07-27T18:53:07.684Z,26.90
2022-07-27T18:55:34.826Z,26.90
2022-07-27T18:58:01.993Z,26.90
2022-07-27T19:00:30.966Z,26.80
2022-07-27T19:02:58.486Z,26.60
2022-07-27T19:05:40.333Z,26.50
2022-07-27T19:08:13.096Z,26.40
2022-07-27T19:10:44.453Z,26.40
2022-07-27T19:13:12.275Z,26.40
2022-07-27T19:15:40.236Z,26.30
2022-07-27T19:18:07.732Z,26.20
2022-07-27T19:20:36.604Z,26.20
2022-07-27T19:23:04.506Z,26.10
2022-07-27T19:25:34.081Z,26.10
2022-07-27T19:28:02.272Z,26.10
2022-07-27T19:30:29.475Z,26.00
2022-07-27T19:32:56.910Z,26.10
2022-07-27T19:35:24.017Z,26.00
2022-07-27T19:37:51.110Z,26.10
2022-07-27T19:40:43.938Z,26.00
2022-07-27T19:43:05.646Z,26.00
2022-07-27T19:45:32.781Z,26.00
2022-07-27T19:48:01.686Z,26.00
2022-07-27T19:50:29.481Z,25.90
2022-07-27T19:52:56.601Z,26.00
2022-07-27T19:55:23.753Z,25.90
2022-07-27T19:57:50.910Z,26.00
2022-07-27T20:00:18.214Z,25.90
2022-07-27T20:02:45.541Z,25.80
2022-07-27T20:05:12.770Z,25.80
2022-07-27T20:07:40.027Z,25.80
2022-07-27T20:10:07.368Z,25.70
2022-07-27T20:12:34.961Z,25.60
2022-07-27T20:15:02.486Z,25.60
2022-07-27T20:17:30.963Z,25.60
2022-07-27T20:19:58.220Z,25.60
2022-07-27T20:22:25.425Z,25.60
2022-07-27T20:24:53.339Z,25.60
2022-07-27T20:27:22.218Z,25.60
2022-07-27T20:29:49.821Z,25.60
2022-07-27T20:32:17.503Z,25.70
2022-07-27T20:34:44.692Z,25.70
2022-07-27T20:37:13.137Z,25.60
2022-07-27T20:39:40.638Z,25.60
2022-07-27T20:42:07.861Z,25.60
2022-07-27T20:44:34.818Z,25.50
2022-07-27T20:47:02.069Z,25.50
2022-07-27T20:49:29.580Z,25.50
2022-07-27T20:51:56.898Z,25.50
2022-07-27T20:54:28.890Z,25.40
2022-07-27T20:56:58.238Z,25.40
2022-07-27T20:59:26.449Z,25.30
2022-07-27T21:01:54.458Z,25.30
2022-07-27T21:04:22.479Z,25.30
2022-07-27T21:06:51.068Z,25.20
2022-07-27T21:09:18.420Z,25.20
2022-07-27T21:11:45.503Z,25.10
2022-07-27T21:14:13.112Z,25.10
2022-07-27T21:16:40.692Z,25.00
2022-07-27T21:19:07.965Z,25.10
2022-07-27T21:21:35.188Z,25.00
2022-07-27T21:24:18.640Z,25.00
2022-07-27T21:26:48.847Z,25.10
2022-07-27T21:29:16.230Z,24.90
2022-07-27T21:31:46.901Z,25.00
2022-07-27T21:34:19.500Z,25.00
2022-07-27T21:36:46.899Z,25.00
2022-07-27T21:39:14.978Z,25.00
2022-07-27T21:41:42.237Z,24.90
2022-07-27T21:44:09.818Z,24.90
2022-07-27T21:46:37.516Z,24.90
2022-07-27T21:49:04.955Z,24.90
2022-07-27T21:51:32.483Z,24.80
2022-07-27T21:54:00.056Z,24.80
2022-07-27T21:56:28.826Z,24.80
2022-07-27T21:58:56.176Z,24.70
2022-07-27T22:01:23.669Z,24.60
2022-07-27T22:03:51.143Z,24.70
2022-07-27T22:06:18.276Z,24.60
2022-07-27T22:08:46.375Z,24.70
2022-07-27T22:11:13.878Z,24.60
2022-07-27T22:13:41.077Z,24.60
2022-07-27T22:16:09.313Z,24.60
2022-07-27T22:18:36.689Z,24.60
2022-07-27T22:21:03.866Z,24.50
2022-07-27T22:23:31.270Z,24.50
2022-07-27T22:25:58.391Z,24.40
2022-07-27T22:28:26.242Z,24.50
2022-07-27T22:31:00.161Z,24.40
2022-07-27T22:33:44.483Z,24.40
2022-07-27T22:36:12.302Z,24.50
2022-07-27T22:38:39.857Z,24.40
2022-07-27T22:41:07.254Z,24.40
2022-07-27T22:43:34.523Z,24.30
2022-07-27T22:46:05.113Z,24.10
2022-07-27T22:48:32.686Z,24.10
2022-07-27T22:50:59.908Z,24.10
2022-07-27T22:53:27.046Z,24.20
2022-07-27T22:55:54.168Z,24.20
2022-07-27T22:58:21.923Z,24.30
2022-07-27T23:00:49.356Z,24.20
2022-07-27T23:03:16.639Z,24.20
2022-07-27T23:05:43.815Z,24.10
2022-07-27T23:08:10.961Z,24.00
2022-07-27T23:10:47.304Z,24.00
2022-07-27T23:13:15.160Z,24.00
2022-07-27T23:15:43.063Z,24.10
2022-07-27T23:18:10.396Z,24.00
2022-07-27T23:20:37.731Z,24.00
2022-07-27T23:23:15.676Z,24.10
2022-07-27T23:25:48.131Z,24.10
2022-07-27T23:28:16.309Z,24.20
2022-07-27T23:30:44.006Z,24.30
2022-07-27T23:33:11.514Z,24.10
2022-07-27T23:35:38.683Z,24.10
2022-07-27T23:38:05.868Z,24.10
2022-07-27T23:40:33.018Z,24.00
2022-07-27T23:43:00.290Z,24.10
2022-07-27T23:45:27.460Z,24.10
2022-07-27T23:47:54.921Z,24.00
2022-07-27T23:50:22.849Z,24.00
2022-07-27T23:52:50.254Z,24.00
2022-07-27T23:55:17.785Z,24.10
2022-07-27T23:57:44.884Z,24.00
